Campaign, Tennessee
Current Conditions -  °F | °C
As of 12:55 AM on Thursday 27 Nov 2014 (Local Time) from KRNC Reporting Station
Broken Clouds Broken Clouds  
Wind Chill: 31°   Ceiling: 3100
Heat Index: 37°   Visibility: 10mi
Dew Point: 34°   Wind: 9mph
Humidity: 87%   Direction: 280°W
Pressure: 30.07"   Gusts: NA
Location:  35.77°N, 85.63°W
Report Text: KRNC 270655Z AUTO 28008KT 10SM SCT025 BKN031 03/01 A3007 RMK
Loading
Personal Weather Stations






























Interactive Weather Map New forecast layout! Learn more

10-Day Weather Forecast

Advertisements
Track Severe Weather on mobile